ΕΜΥ, Εθνική Μετεωρολογική Υπηρεσία - Δελτία Καιρού, Προγνώσεις

ΑΕΡΟΝΑΥΤΙΛΙΑ

GREEK AIRPORTS CODES

TAF LGIR 032300Z 0400/0424 VRB05KT 9999 FEW020 TEMPO 0411/0417 32012KT=

EUROPEAN AIRPORTS CODES

LFPO 040230Z 34004KT CAVOK 13/10 Q1017 NOSIG=